sensor_id;sensor_type;location;lat;lon;timestamp;pressure;altitude;pressure_sealevel;temperature;humidity
21781;BME280;52576;53.614;9.894;2023-04-06T00:00:24;101777.59;;;0.94;72.39
21781;BME280;52576;53.614;9.894;2023-04-06T00:02:28;101774.19;;;0.92;72.55
21781;BME280;52576;53.614;9.894;2023-04-06T00:04:31;101769.06;;;0.89;72.76
21781;BME280;52576;53.614;9.894;2023-04-06T00:06:35;101769.94;;;0.87;72.88
21781;BME280;52576;53.614;9.894;2023-04-06T00:08:38;101767.38;;;0.84;72.86
21781;BME280;52576;53.614;9.894;2023-04-06T00:10:43;101772.56;;;0.82;72.85
21781;BME280;52576;53.614;9.894;2023-04-06T00:12:47;101770.88;;;0.78;72.97
21781;BME280;52576;53.614;9.894;2023-04-06T00:14:50;101774.38;;;0.77;72.99
21781;BME280;52576;53.614;9.894;2023-04-06T00:16:55;101777.84;;;0.73;72.94
21781;BME280;52576;53.614;9.894;2023-04-06T00:18:59;101768.41;;;0.71;73.29
21781;BME280;52576;53.614;9.894;2023-04-06T00:21:03;101766.72;;;0.66;73.40
21781;BME280;52576;53.614;9.894;2023-04-06T00:23:07;101771.88;;;0.65;73.67
21781;BME280;52576;53.614;9.894;2023-04-06T00:25:11;101764.19;;;0.62;73.83
21781;BME280;52576;53.614;9.894;2023-04-06T00:27:17;101760.75;;;0.60;73.88
21781;BME280;52576;53.614;9.894;2023-04-06T00:29:23;101763.38;;;0.57;73.85
21781;BME280;52576;53.614;9.894;2023-04-06T00:31:27;101756.50;;;0.54;73.95
21781;BME280;52576;53.614;9.894;2023-04-06T00:33:35;101759.09;;;0.53;74.01
21781;BME280;52576;53.614;9.894;2023-04-06T00:35:38;101755.72;;;0.51;74.12
21781;BME280;52576;53.614;9.894;2023-04-06T00:37:42;101754.88;;;0.49;74.31
21781;BME280;52576;53.614;9.894;2023-04-06T00:39:49;101754.88;;;0.47;74.48
21781;BME280;52576;53.614;9.894;2023-04-06T00:41:53;101752.31;;;0.46;74.44
21781;BME280;52576;53.614;9.894;2023-04-06T00:43:57;101740.28;;;0.45;74.63
21781;BME280;52576;53.614;9.894;2023-04-06T00:46:01;101754.06;;;0.44;74.53
21781;BME280;52576;53.614;9.894;2023-04-06T00:48:08;101747.19;;;0.43;74.70
21781;BME280;52576;53.614;9.894;2023-04-06T00:50:13;101746.34;;;0.41;74.71
21781;BME280;52576;53.614;9.894;2023-04-06T00:52:17;101743.78;;;0.39;74.76
21781;BME280;52576;53.614;9.894;2023-04-06T00:54:22;101743.78;;;0.38;74.84
21781;BME280;52576;53.614;9.894;2023-04-06T00:56:26;101743.81;;;0.34;74.91
21781;BME280;52576;53.614;9.894;2023-04-06T00:58:29;101748.13;;;0.34;74.91
21781;BME280;52576;53.614;9.894;2023-04-06T01:00:40;101738.69;;;0.31;74.79
21781;BME280;52576;53.614;9.894;2023-04-06T01:02:49;101735.25;;;0.29;74.82
21781;BME280;52576;53.614;9.894;2023-04-06T01:04:56;101733.53;;;0.28;74.84
21781;BME280;52576;53.614;9.894;2023-04-06T01:07:11;101737.00;;;0.27;75.14
21781;BME280;52576;53.614;9.894;2023-04-06T01:09:24;101735.28;;;0.26;75.20
21781;BME280;52576;53.614;9.894;2023-04-06T01:11:28;101732.75;;;0.25;75.24
21781;BME280;52576;53.614;9.894;2023-04-06T01:13:32;101728.47;;;0.24;75.37
21781;BME280;52576;53.614;9.894;2023-04-06T01:15:39;101728.47;;;0.22;75.40
21781;BME280;52576;53.614;9.894;2023-04-06T01:17:46;101719.03;;;0.20;75.48
21781;BME280;52576;53.614;9.894;2023-04-06T01:19:52;101722.50;;;0.17;75.35
21781;BME280;52576;53.614;9.894;2023-04-06T01:22:01;101720.78;;;0.16;75.60
21781;BME280;52576;53.614;9.894;2023-04-06T01:24:08;101722.53;;;0.13;75.71
21781;BME280;52576;53.614;9.894;2023-04-06T01:26:35;101725.13;;;0.11;75.73
21781;BME280;52576;53.614;9.894;2023-04-06T01:28:42;101716.53;;;0.11;75.81
21781;BME280;52576;53.614;9.894;2023-04-06T01:30:57;101728.59;;;0.07;76.02
21781;BME280;52576;53.614;9.894;2023-04-06T01:33:25;101720.00;;;0.07;76.29
21781;BME280;52576;53.614;9.894;2023-04-06T01:35:34;101723.44;;;0.04;76.00
21781;BME280;52576;53.614;9.894;2023-04-06T01:37:48;101724.31;;;0.03;76.14
21781;BME280;52576;53.614;9.894;2023-04-06T01:40:00;101719.22;;;0.00;75.98
21781;BME280;52576;53.614;9.894;2023-04-06T01:42:20;101714.94;;;-0.01;76.09
21781;BME280;52576;53.614;9.894;2023-04-06T01:44:25;101717.50;;;-0.03;76.22
21781;BME280;52576;53.614;9.894;2023-04-06T01:46:39;101711.50;;;-0.03;76.33
21781;BME280;52576;53.614;9.894;2023-04-06T01:48:45;101715.81;;;-0.04;76.46
21781;BME280;52576;53.614;9.894;2023-04-06T01:50:54;101710.66;;;-0.07;76.40
21781;BME280;52576;53.614;9.894;2023-04-06T01:53:03;101709.81;;;-0.07;76.34
21781;BME280;52576;53.614;9.894;2023-04-06T01:55:09;101708.97;;;-0.11;76.44
21781;BME280;52576;53.614;9.894;2023-04-06T01:57:31;101706.41;;;-0.12;76.73
21781;BME280;52576;53.614;9.894;2023-04-06T01:59:52;101708.13;;;-0.11;76.79
21781;BME280;52576;53.614;9.894;2023-04-06T02:02:03;101711.56;;;-0.12;76.94
21781;BME280;52576;53.614;9.894;2023-04-06T02:04:12;101697.84;;;-0.14;76.86
21781;BME280;52576;53.614;9.894;2023-04-06T02:06:23;101706.44;;;-0.15;76.97
21781;BME280;52576;53.614;9.894;2023-04-06T02:08:27;101698.72;;;-0.17;77.08
21781;BME280;52576;53.614;9.894;2023-04-06T02:10:33;101699.59;;;-0.19;77.16
21781;BME280;52576;53.614;9.894;2023-04-06T02:12:45;101703.03;;;-0.20;77.07
21781;BME280;52576;53.614;9.894;2023-04-06T02:14:55;101701.31;;;-0.21;77.18
21781;BME280;52576;53.614;9.894;2023-04-06T02:16:59;101699.59;;;-0.22;77.28
21781;BME280;52576;53.614;9.894;2023-04-06T02:19:02;101693.59;;;-0.23;77.33
21781;BME280;52576;53.614;9.894;2023-04-06T02:21:06;101691.03;;;-0.24;77.45
21781;BME280;52576;53.614;9.894;2023-04-06T02:23:12;101694.47;;;-0.25;77.45
21781;BME280;52576;53.614;9.894;2023-04-06T02:25:16;101688.50;;;-0.27;77.58
21781;BME280;52576;53.614;9.894;2023-04-06T02:27:22;101687.66;;;-0.29;77.48
21781;BME280;52576;53.614;9.894;2023-04-06T02:29:25;101685.09;;;-0.29;77.59
21781;BME280;52576;53.614;9.894;2023-04-06T02:31:29;101691.09;;;-0.30;77.62
21781;BME280;52576;53.614;9.894;2023-04-06T02:33:33;101685.09;;;-0.31;77.60
21781;BME280;52576;53.614;9.894;2023-04-06T02:35:37;101689.41;;;-0.31;77.72
21781;BME280;52576;53.614;9.894;2023-04-06T02:37:41;101691.13;;;-0.32;77.81
21781;BME280;52576;53.614;9.894;2023-04-06T02:39:45;101687.69;;;-0.32;77.83
21781;BME280;52576;53.614;9.894;2023-04-06T02:41:49;101692.84;;;-0.34;77.91
21781;BME280;52576;53.614;9.894;2023-04-06T02:43:59;101692.84;;;-0.36;77.85
21781;BME280;52576;53.614;9.894;2023-04-06T02:46:11;101687.72;;;-0.36;77.89
21781;BME280;52576;53.614;9.894;2023-04-06T02:48:18;101691.16;;;-0.37;78.02
21781;BME280;52576;53.614;9.894;2023-04-06T02:50:23;101685.13;;;-0.37;78.02
21781;BME280;52576;53.614;9.894;2023-04-06T02:52:33;101694.59;;;-0.38;78.14
21781;BME280;52576;53.614;9.894;2023-04-06T02:54:38;101691.16;;;-0.40;78.33
21781;BME280;52576;53.614;9.894;2023-04-06T02:56:41;101687.75;;;-0.42;78.25
21781;BME280;52576;53.614;9.894;2023-04-06T02:58:45;101691.19;;;-0.43;78.15
21781;BME280;52576;53.614;9.894;2023-04-06T03:00:50;101685.19;;;-0.45;78.20
21781;BME280;52576;53.614;9.894;2023-04-06T03:02:54;101681.75;;;-0.47;78.27
21781;BME280;52576;53.614;9.894;2023-04-06T03:05:00;101684.34;;;-0.47;78.49
21781;BME280;52576;53.614;9.894;2023-04-06T03:07:09;101683.47;;;-0.47;78.49
21781;BME280;52576;53.614;9.894;2023-04-06T03:09:13;101686.06;;;-0.49;78.47
21781;BME280;52576;53.614;9.894;2023-04-06T03:11:19;101681.78;;;-0.48;78.51
21781;BME280;52576;53.614;9.894;2023-04-06T03:13:25;101674.91;;;-0.51;78.64
21781;BME280;52576;53.614;9.894;2023-04-06T03:15:31;101681.78;;;-0.50;78.78
21781;BME280;52576;53.614;9.894;2023-04-06T03:17:47;101684.34;;;-0.48;78.88
21781;BME280;52576;53.614;9.894;2023-04-06T03:20:05;101687.78;;;-0.48;79.06
21781;BME280;52576;53.614;9.894;2023-04-06T03:22:09;101692.94;;;-0.48;79.11
21781;BME280;52576;53.614;9.894;2023-04-06T03:24:13;101687.78;;;-0.48;79.15
21781;BME280;52576;53.614;9.894;2023-04-06T03:26:17;101692.94;;;-0.48;79.25
21781;BME280;52576;53.614;9.894;2023-04-06T03:28:21;101689.50;;;-0.47;79.41
21781;BME280;52576;53.614;9.894;2023-04-06T03:30:29;101691.19;;;-0.46;79.43
21781;BME280;52576;53.614;9.894;2023-04-06T03:32:33;101689.47;;;-0.44;79.38
21781;BME280;52576;53.614;9.894;2023-04-06T03:34:38;101689.44;;;-0.41;79.54
21781;BME280;52576;53.614;9.894;2023-04-06T03:36:43;101706.59;;;-0.37;79.56
21781;BME280;52576;53.614;9.894;2023-04-06T03:38:48;101693.69;;;-0.32;79.72
21781;BME280;52576;53.614;9.894;2023-04-06T03:40:53;101702.25;;;-0.27;79.98
21781;BME280;52576;53.614;9.894;2023-04-06T03:43:00;101700.47;;;-0.20;80.07
21781;BME280;52576;53.614;9.894;2023-04-06T03:45:08;101700.41;;;-0.14;80.18
21781;BME280;52576;53.614;9.894;2023-04-06T03:47:18;101694.38;;;-0.10;80.24
21781;BME280;52576;53.614;9.894;2023-04-06T03:49:22;101696.91;;;-0.06;80.06
21781;BME280;52576;53.614;9.894;2023-04-06T03:51:29;101697.75;;;-0.02;80.21
21781;BME280;52576;53.614;9.894;2023-04-06T03:53:32;101702.84;;;0.01;80.03
21781;BME280;52576;53.614;9.894;2023-04-06T03:55:36;101696.81;;;0.04;80.00
21781;BME280;52576;53.614;9.894;2023-04-06T03:57:40;101693.38;;;0.05;80.04
21781;BME280;52576;53.614;9.894;2023-04-06T03:59:43;101697.66;;;0.06;79.90
21781;BME280;52576;53.614;9.894;2023-04-06T04:01:47;101694.22;;;0.05;79.90
21781;BME280;52576;53.614;9.894;2023-04-06T04:03:50;101691.66;;;0.05;79.84
21781;BME280;52576;53.614;9.894;2023-04-06T04:05:54;101701.97;;;0.04;79.77
21781;BME280;52576;53.614;9.894;2023-04-06T04:08:01;101701.13;;;0.03;79.83
21781;BME280;52576;53.614;9.894;2023-04-06T04:10:06;101697.69;;;0.01;79.78
21781;BME280;52576;53.614;9.894;2023-04-06T04:12:10;101695.19;;;-0.02;79.83
21781;BME280;52576;53.614;9.894;2023-04-06T04:14:13;101696.91;;;-0.04;79.84
21781;BME280;52576;53.614;9.894;2023-04-06T04:16:17;101702.09;;;-0.07;79.79
21781;BME280;52576;53.614;9.894;2023-04-06T04:18:20;101703.81;;;-0.11;79.99
21781;BME280;52576;53.614;9.894;2023-04-06T04:20:24;101701.25;;;-0.12;80.15
21781;BME280;52576;53.614;9.894;2023-04-06T04:22:28;101705.59;;;-0.16;80.15
21781;BME280;52576;53.614;9.894;2023-04-06T04:24:33;101711.59;;;-0.18;80.15
21781;BME280;52576;53.614;9.894;2023-04-06T04:26:37;101715.06;;;-0.19;80.12
21781;BME280;52576;53.614;9.894;2023-04-06T04:28:41;101714.19;;;-0.21;80.32
21781;BME280;52576;53.614;9.894;2023-04-06T04:30:45;101711.63;;;-0.23;80.45
21781;BME280;52576;53.614;9.894;2023-04-06T04:32:49;101715.94;;;-0.23;80.40
21781;BME280;52576;53.614;9.894;2023-04-06T04:34:56;101712.50;;;-0.24;80.54
21781;BME280;52576;53.614;9.894;2023-04-06T04:37:09;101709.94;;;-0.25;80.53
21781;BME280;52576;53.614;9.894;2023-04-06T04:39:26;101713.41;;;-0.26;80.64
21781;BME280;52576;53.614;9.894;2023-04-06T04:41:38;101715.09;;;-0.25;80.61
21781;BME280;52576;53.614;9.894;2023-04-06T04:43:44;101712.56;;;-0.27;80.72
21781;BME280;52576;53.614;9.894;2023-04-06T04:45:52;101711.69;;;-0.27;80.80
21781;BME280;52576;53.614;9.894;2023-04-06T04:48:11;101710.84;;;-0.28;80.73
21781;BME280;52576;53.614;9.894;2023-04-06T04:50:32;101715.13;;;-0.28;80.92
21781;BME280;52576;53.614;9.894;2023-04-06T04:52:36;101711.69;;;-0.27;80.87
21781;BME280;52576;53.614;9.894;2023-04-06T04:54:50;101709.13;;;-0.29;80.90
21781;BME280;52576;53.614;9.894;2023-04-06T04:57:01;101711.69;;;-0.27;81.03
21781;BME280;52576;53.614;9.894;2023-04-06T04:59:14;101721.13;;;-0.26;81.11
21781;BME280;52576;53.614;9.894;2023-04-06T05:01:25;101711.66;;;-0.26;81.14
21781;BME280;52576;53.614;9.894;2023-04-06T05:03:29;101714.22;;;-0.24;81.18
21781;BME280;52576;53.614;9.894;2023-04-06T05:05:36;101711.66;;;-0.24;81.21
21781;BME280;52576;53.614;9.894;2023-04-06T05:07:41;101715.06;;;-0.22;81.19
21781;BME280;52576;53.614;9.894;2023-04-06T05:09:51;101710.75;;;-0.20;81.38
21781;BME280;52576;53.614;9.894;2023-04-06T05:11:58;101712.47;;;-0.19;81.39
21781;BME280;52576;53.614;9.894;2023-04-06T05:14:04;101708.16;;;-0.17;81.37
21781;BME280;52576;53.614;9.894;2023-04-06T05:16:08;101715.88;;;-0.13;81.42
21781;BME280;52576;53.614;9.894;2023-04-06T05:18:12;101713.28;;;-0.11;81.52
21781;BME280;52576;53.614;9.894;2023-04-06T05:20:16;101704.66;;;-0.09;81.56
21781;BME280;52576;53.614;9.894;2023-04-06T05:22:23;101710.66;;;-0.05;81.62
21781;BME280;52576;53.614;9.894;2023-04-06T05:24:44;101709.78;;;-0.01;81.56
21781;BME280;52576;53.614;9.894;2023-04-06T05:26:48;101713.16;;;0.01;81.58
21781;BME280;52576;53.614;9.894;2023-04-06T05:28:57;101715.72;;;0.03;81.50
21781;BME280;52576;53.614;9.894;2023-04-06T05:31:04;101713.13;;;0.06;81.37
21781;BME280;52576;53.614;9.894;2023-04-06T05:33:18;101707.09;;;0.08;81.55
21781;BME280;52576;53.614;9.894;2023-04-06T05:35:36;101707.94;;;0.10;81.53
21781;BME280;52576;53.614;9.894;2023-04-06T05:37:45;101707.91;;;0.13;81.45
21781;BME280;52576;53.614;9.894;2023-04-06T05:39:49;101707.88;;;0.16;81.51
21781;BME280;52576;53.614;9.894;2023-04-06T05:41:53;101708.72;;;0.20;81.31
21781;BME280;52576;53.614;9.894;2023-04-06T05:44:12;101706.13;;;0.21;81.32
21781;BME280;52576;53.614;9.894;2023-04-06T05:46:20;101703.53;;;0.24;81.40
21781;BME280;52576;53.614;9.894;2023-04-06T05:48:24;101706.03;;;0.27;81.28
21781;BME280;52576;53.614;9.894;2023-04-06T05:50:28;101709.44;;;0.32;81.21
21781;BME280;52576;53.614;9.894;2023-04-06T05:52:33;101718.00;;;0.38;81.21
21781;BME280;52576;53.614;9.894;2023-04-06T05:54:37;101711.06;;;0.43;81.19
21781;BME280;52576;53.614;9.894;2023-04-06T05:56:40;101704.16;;;0.48;81.24
21781;BME280;52576;53.614;9.894;2023-04-06T05:58:46;101706.63;;;0.54;81.15
21781;BME280;52576;53.614;9.894;2023-04-06T06:00:57;101709.16;;;0.60;81.09
21781;BME280;52576;53.614;9.894;2023-04-06T06:03:05;101712.56;;;0.65;81.07
21781;BME280;52576;53.614;9.894;2023-04-06T06:05:12;101711.63;;;0.71;80.98
21781;BME280;52576;53.614;9.894;2023-04-06T06:07:16;101712.44;;;0.77;80.89
21781;BME280;52576;53.614;9.894;2023-04-06T06:09:30;101713.16;;;0.85;80.62
21781;BME280;52576;53.614;9.894;2023-04-06T06:11:43;101710.53;;;0.91;80.64
21781;BME280;52576;53.614;9.894;2023-04-06T06:13:49;101707.00;;;0.98;80.47
21781;BME280;52576;53.614;9.894;2023-04-06T06:15:52;101706.91;;;1.05;80.25
21781;BME280;52576;53.614;9.894;2023-04-06T06:17:57;101707.69;;;1.11;80.36
21781;BME280;52576;53.614;9.894;2023-04-06T06:20:04;101708.47;;;1.18;80.01
21781;BME280;52576;53.614;9.894;2023-04-06T06:22:07;101710.09;;;1.25;79.92
21781;BME280;52576;53.614;9.894;2023-04-06T06:24:15;101706.53;;;1.32;79.83
21781;BME280;52576;53.614;9.894;2023-04-06T06:26:19;101712.47;;;1.40;79.55
21781;BME280;52576;53.614;9.894;2023-04-06T06:28:24;101706.34;;;1.47;79.33
21781;BME280;52576;53.614;9.894;2023-04-06T06:30:28;101714.84;;;1.55;79.13
21781;BME280;52576;53.614;9.894;2023-04-06T06:32:32;101712.97;;;1.63;78.85
21781;BME280;52576;53.614;9.894;2023-04-06T06:34:36;101712.03;;;1.70;78.54
21781;BME280;52576;53.614;9.894;2023-04-06T06:36:43;101714.50;;;1.78;78.44
21781;BME280;52576;53.614;9.894;2023-04-06T06:38:50;101720.34;;;1.88;78.18
21781;BME280;52576;53.614;9.894;2023-04-06T06:40:55;101711.63;;;1.95;77.87
21781;BME280;52576;53.614;9.894;2023-04-06T06:43:02;101714.06;;;2.04;77.59
21781;BME280;52576;53.614;9.894;2023-04-06T06:45:20;101713.88;;;2.15;77.30
21781;BME280;52576;53.614;9.894;2023-04-06T06:47:24;101716.31;;;2.24;76.86
21781;BME280;52576;53.614;9.894;2023-04-06T06:49:28;101714.44;;;2.33;76.64
21781;BME280;52576;53.614;9.894;2023-04-06T06:51:31;101708.25;;;2.41;76.18
21781;BME280;52576;53.614;9.894;2023-04-06T06:53:37;101716.69;;;2.52;75.91
21781;BME280;52576;53.614;9.894;2023-04-06T06:55:41;101713.03;;;2.62;75.32
21781;BME280;52576;53.614;9.894;2023-04-06T06:57:46;101714.56;;;2.72;74.91
21781;BME280;52576;53.614;9.894;2023-04-06T06:59:50;101714.41;;;2.81;74.61
21781;BME280;52576;53.614;9.894;2023-04-06T07:01:55;101712.41;;;2.92;74.23
21781;BME280;52576;53.614;9.894;2023-04-06T07:03:58;101707.00;;;3.04;73.66
21781;BME280;52576;53.614;9.894;2023-04-06T07:06:02;101702.44;;;3.16;72.94
21781;BME280;52576;53.614;9.894;2023-04-06T07:08:06;101706.53;;;3.26;72.41
21781;BME280;52576;53.614;9.894;2023-04-06T07:10:11;101712.34;;;3.37;71.96
21781;BME280;52576;53.614;9.894;2023-04-06T07:12:15;101707.78;;;3.48;71.51
21781;BME280;52576;53.614;9.894;2023-04-06T07:14:19;101701.47;;;3.60;70.76
21781;BME280;52576;53.614;9.894;2023-04-06T07:16:23;101698.59;;;3.70;70.02
21781;BME280;52576;53.614;9.894;2023-04-06T07:18:29;101706.06;;;3.84;69.24
21781;BME280;52576;53.614;9.894;2023-04-06T07:20:35;101704.91;;;3.96;68.62
21781;BME280;52576;53.614;9.894;2023-04-06T07:22:39;101704.63;;;4.08;67.65
21781;BME280;52576;53.614;9.894;2023-04-06T07:24:42;101702.59;;;4.19;66.96
21781;BME280;52576;53.614;9.894;2023-04-06T07:26:47;101697.97;;;4.30;66.31
21781;BME280;52576;53.614;9.894;2023-04-06T07:28:51;101689.06;;;4.40;65.13
21781;BME280;52576;53.614;9.894;2023-04-06T07:30:57;101699.16;;;4.51;64.40
21781;BME280;52576;53.614;9.894;2023-04-06T07:33:01;101697.22;;;4.59;63.50
21781;BME280;52576;53.614;9.894;2023-04-06T07:35:05;101695.19;;;4.69;62.85
21781;BME280;52576;53.614;9.894;2023-04-06T07:37:09;101701.84;;;4.79;62.16
21781;BME280;52576;53.614;9.894;2023-04-06T07:39:13;101697.28;;;4.87;61.71
21781;BME280;52576;53.614;9.894;2023-04-06T07:41:17;101696.16;;;4.96;60.58
21781;BME280;52576;53.614;9.894;2023-04-06T07:43:22;101694.19;;;5.04;60.16
21781;BME280;52576;53.614;9.894;2023-04-06T07:45:26;101696.53;;;5.13;59.31
21781;BME280;52576;53.614;9.894;2023-04-06T07:47:30;101698.88;;;5.21;58.88
21781;BME280;52576;53.614;9.894;2023-04-06T07:49:35;101692.63;;;5.28;58.72
21781;BME280;52576;53.614;9.894;2023-04-06T07:51:39;101694.94;;;5.37;58.43
21781;BME280;52576;53.614;9.894;2023-04-06T07:53:44;101692.97;;;5.45;58.44
21781;BME280;52576;53.614;9.894;2023-04-06T07:55:47;101694.41;;;5.54;57.74
21781;BME280;52576;53.614;9.894;2023-04-06T07:57:51;101688.09;;;5.62;57.07
21781;BME280;52576;53.614;9.894;2023-04-06T07:59:56;101689.47;;;5.72;56.65
21781;BME280;52576;53.614;9.894;2023-04-06T08:01:59;101687.50;;;5.80;56.24
21781;BME280;52576;53.614;9.894;2023-04-06T08:04:03;101686.44;;;5.86;55.59
21781;BME280;52576;53.614;9.894;2023-04-06T08:06:07;101692.34;;;5.93;54.80
21781;BME280;52576;53.614;9.894;2023-04-06T08:08:11;101689.50;;;5.99;54.54
21781;BME280;52576;53.614;9.894;2023-04-06T08:10:15;101686.72;;;6.05;53.94
21781;BME280;52576;53.614;9.894;2023-04-06T08:12:18;101684.81;;;6.10;53.33
21781;BME280;52576;53.614;9.894;2023-04-06T08:14:22;101689.81;;;6.16;52.40
21781;BME280;52576;53.614;9.894;2023-04-06T08:16:27;101682.72;;;6.21;52.35
21781;BME280;52576;53.614;9.894;2023-04-06T08:18:30;101682.47;;;6.27;52.20
21781;BME280;52576;53.614;9.894;2023-04-06T08:20:34;101679.63;;;6.35;51.59
21781;BME280;52576;53.614;9.894;2023-04-06T08:22:38;101685.38;;;6.44;50.92
21781;BME280;52576;53.614;9.894;2023-04-06T08:24:42;101679.00;;;6.52;50.57
21781;BME280;52576;53.614;9.894;2023-04-06T08:26:45;101675.28;;;6.59;50.71
21781;BME280;52576;53.614;9.894;2023-04-06T08:28:49;101675.88;;;6.67;50.56
21781;BME280;52576;53.614;9.894;2023-04-06T08:30:52;101669.50;;;6.75;50.50
21781;BME280;52576;53.614;9.894;2023-04-06T08:32:57;101669.19;;;6.83;50.10
21781;BME280;52576;53.614;9.894;2023-04-06T08:35:01;101669.75;;;6.91;49.25
21781;BME280;52576;53.614;9.894;2023-04-06T08:37:05;101669.53;;;6.97;48.90
21781;BME280;52576;53.614;9.894;2023-04-06T08:39:09;101671.84;;;7.05;48.82
21781;BME280;52576;53.614;9.894;2023-04-06T08:41:13;101676.81;;;7.11;48.65
21781;BME280;52576;53.614;9.894;2023-04-06T08:43:17;101664.41;;;7.18;47.85
21781;BME280;52576;53.614;9.894;2023-04-06T08:45:23;101666.78;;;7.24;47.32
21781;BME280;52576;53.614;9.894;2023-04-06T08:47:28;101664.81;;;7.29;46.97
21781;BME280;52576;53.614;9.894;2023-04-06T08:49:33;101668.13;;;7.34;46.74
21781;BME280;52576;53.614;9.894;2023-04-06T08:51:37;101665.28;;;7.40;46.53
21781;BME280;52576;53.614;9.894;2023-04-06T08:53:41;101664.97;;;7.47;46.57
21781;BME280;52576;53.614;9.894;2023-04-06T08:55:45;101663.78;;;7.55;46.40
21781;BME280;52576;53.614;9.894;2023-04-06T08:57:49;101661.81;;;7.61;46.05
21781;BME280;52576;53.614;9.894;2023-04-06T08:59:56;101659.75;;;7.69;45.49
21781;BME280;52576;53.614;9.894;2023-04-06T09:02:03;101664.72;;;7.75;45.36
21781;BME280;52576;53.614;9.894;2023-04-06T09:04:07;101671.38;;;7.82;44.85
21781;BME280;52576;53.614;9.894;2023-04-06T09:06:15;101665.03;;;7.88;44.92
21781;BME280;52576;53.614;9.894;2023-04-06T09:08:19;101658.72;;;7.94;44.90
21781;BME280;52576;53.614;9.894;2023-04-06T09:10:23;101663.69;;;8.00;44.22
21781;BME280;52576;53.614;9.894;2023-04-06T09:12:28;101658.19;;;8.06;44.00
21781;BME280;52576;53.614;9.894;2023-04-06T09:14:35;101654.41;;;8.13;43.98
21781;BME280;52576;53.614;9.894;2023-04-06T09:16:40;101655.03;;;8.20;43.77
21781;BME280;52576;53.614;9.894;2023-04-06T09:18:44;101650.50;;;8.23;43.55
21781;BME280;52576;53.614;9.894;2023-04-06T09:20:57;101659.84;;;8.29;43.12
21781;BME280;52576;53.614;9.894;2023-04-06T09:23:02;101649.22;;;8.33;42.16
21781;BME280;52576;53.614;9.894;2023-04-06T09:25:07;101657.78;;;8.37;41.89
21781;BME280;52576;53.614;9.894;2023-04-06T09:27:12;101648.94;;;8.39;42.27
21781;BME280;52576;53.614;9.894;2023-04-06T09:29:24;101651.25;;;8.47;41.55
21781;BME280;52576;53.614;9.894;2023-04-06T09:31:31;101652.75;;;8.53;41.86
21781;BME280;52576;53.614;9.894;2023-04-06T09:33:37;101642.84;;;8.59;42.11
21781;BME280;52576;53.614;9.894;2023-04-06T09:35:49;101645.13;;;8.67;41.42
21781;BME280;52576;53.614;9.894;2023-04-06T09:37:53;101649.28;;;8.71;40.86
21781;BME280;52576;53.614;9.894;2023-04-06T09:40:04;101645.78;;;8.72;40.93
21781;BME280;52576;53.614;9.894;2023-04-06T09:42:09;101636.22;;;8.71;41.01
21781;BME280;52576;53.614;9.894;2023-04-06T09:44:13;101627.41;;;8.73;41.40
21781;BME280;52576;53.614;9.894;2023-04-06T09:46:17;101631.50;;;8.79;40.84
21781;BME280;52576;53.614;9.894;2023-04-06T09:48:24;101624.38;;;8.82;41.25
21781;BME280;52576;53.614;9.894;2023-04-06T09:50:30;101632.78;;;8.89;41.53
21781;BME280;52576;53.614;9.894;2023-04-06T09:52:38;101627.13;;;8.98;41.14
21781;BME280;52576;53.614;9.894;2023-04-06T09:54:46;101618.09;;;9.05;41.17
21781;BME280;52576;53.614;9.894;2023-04-06T09:56:56;101617.03;;;9.09;40.97
21781;BME280;52576;53.614;9.894;2023-04-06T09:59:04;101616.84;;;9.12;40.29
21781;BME280;52576;53.614;9.894;2023-04-06T10:01:10;101615.00;;;9.14;40.88
21781;BME280;52576;53.614;9.894;2023-04-06T10:03:22;101611.34;;;9.18;41.09
21781;BME280;52576;53.614;9.894;2023-04-06T10:05:34;101617.97;;;9.26;41.03
21781;BME280;52576;53.614;9.894;2023-04-06T10:07:41;101604.69;;;9.30;40.90
21781;BME280;52576;53.614;9.894;2023-04-06T10:10:02;101617.22;;;9.41;40.05
21781;BME280;52576;53.614;9.894;2023-04-06T10:12:08;101613.53;;;9.45;39.76
21781;BME280;52576;53.614;9.894;2023-04-06T10:14:12;101611.56;;;9.50;39.08
21781;BME280;52576;53.614;9.894;2023-04-06T10:16:16;101613.09;;;9.54;38.92
21781;BME280;52576;53.614;9.894;2023-04-06T10:18:21;101609.28;;;9.61;38.61
21781;BME280;52576;53.614;9.894;2023-04-06T10:20:29;101610.72;;;9.67;38.46
21781;BME280;52576;53.614;9.894;2023-04-06T10:22:36;101614.81;;;9.72;37.77
21781;BME280;52576;53.614;9.894;2023-04-06T10:24:42;101602.50;;;9.74;37.83
21781;BME280;52576;53.614;9.894;2023-04-06T10:26:57;101602.41;;;9.76;37.73
21781;BME280;52576;53.614;9.894;2023-04-06T10:29:03;101604.09;;;9.77;37.79
21781;BME280;52576;53.614;9.894;2023-04-06T10:31:07;101615.97;;;9.84;38.24
21781;BME280;52576;53.614;9.894;2023-04-06T10:33:14;101607.72;;;9.92;38.08
21781;BME280;52576;53.614;9.894;2023-04-06T10:35:17;101608.94;;;10.02;38.08
21781;BME280;52576;53.614;9.894;2023-04-06T10:37:21;101604.94;;;10.12;37.92
21781;BME280;52576;53.614;9.894;2023-04-06T10:39:28;101611.56;;;10.19;37.90
21781;BME280;52576;53.614;9.894;2023-04-06T10:41:33;101598.94;;;10.27;37.63
21781;BME280;52576;53.614;9.894;2023-04-06T10:43:38;101597.75;;;10.33;37.22
21781;BME280;52576;53.614;9.894;2023-04-06T10:45:44;101592.38;;;10.36;36.79
21781;BME280;52576;53.614;9.894;2023-04-06T10:47:48;101592.09;;;10.40;36.24
21781;BME280;52576;53.614;9.894;2023-04-06T10:49:51;101591.00;;;10.44;36.27
21781;BME280;52576;53.614;9.894;2023-04-06T10:51:55;101582.91;;;10.49;36.18
21781;BME280;52576;53.614;9.894;2023-04-06T10:54:01;101592.22;;;10.54;36.36
21781;BME280;52576;53.614;9.894;2023-04-06T10:56:10;101589.28;;;10.61;36.16
21781;BME280;52576;53.614;9.894;2023-04-06T10:58:14;101581.06;;;10.67;35.98
21781;BME280;52576;53.614;9.894;2023-04-06T11:00:19;101582.44;;;10.74;36.24
21781;BME280;52576;53.614;9.894;2023-04-06T11:02:24;101593.19;;;10.85;36.27
21781;BME280;52576;53.614;9.894;2023-04-06T11:04:27;101584.78;;;10.94;35.91
21781;BME280;52576;53.614;9.894;2023-04-06T11:06:32;101587.00;;;11.02;35.40